createdAt,value
2022-12-25T00:02:00.108Z,101466.88
2022-12-25T00:04:29.295Z,101464.34
2022-12-25T00:06:59.623Z,101464.59
2022-12-25T00:09:28.920Z,101468.83
2022-12-25T00:11:58.420Z,101469.08
2022-12-25T00:14:27.637Z,101459.80
2022-12-25T00:16:56.908Z,101457.02
2022-12-25T00:19:26.120Z,101469.08
2022-12-25T00:21:55.647Z,101470.34
2022-12-25T00:24:24.840Z,101457.42
2022-12-25T00:26:54.327Z,101460.25
2022-12-25T00:29:23.794Z,101457.11
2022-12-25T00:31:54.456Z,101445.69
2022-12-25T00:34:24.380Z,101450.99
2022-12-25T00:36:54.309Z,101446.84
2022-12-25T00:39:23.608Z,101453.41
2022-12-25T00:42:11.680Z,101449.11
2022-12-25T00:44:40.900Z,101447.84
2022-12-25T00:47:10.202Z,101448.91
2022-12-25T00:49:39.587Z,101444.40
2022-12-25T00:52:09.405Z,101444.55
2022-12-25T00:54:39.185Z,101437.56
2022-12-25T00:57:08.435Z,101439.45
2022-12-25T00:59:37.719Z,101440.94
2022-12-25T01:02:25.832Z,101443.99
2022-12-25T01:04:57.365Z,101451.48
2022-12-25T01:07:28.044Z,101459.86
2022-12-25T01:10:15.488Z,101464.27
2022-12-25T01:12:45.365Z,101466.99
2022-12-25T01:15:15.127Z,101469.27
2022-12-25T01:17:44.709Z,101460.89
2022-12-25T01:20:15.936Z,101457.91
2022-12-25T01:22:46.634Z,101471.14
2022-12-25T01:25:15.855Z,101472.81
2022-12-25T01:27:45.227Z,101468.34
2022-12-25T01:30:14.737Z,101462.41
2022-12-25T01:32:44.138Z,101465.78
2022-12-25T01:35:13.458Z,101463.19
2022-12-25T01:37:42.687Z,101456.03
2022-12-25T01:40:12.457Z,101474.20
2022-12-25T01:42:41.966Z,101471.37
2022-12-25T01:45:38.482Z,101468.44
2022-12-25T01:48:11.091Z,101474.95
2022-12-25T01:50:43.690Z,101478.13
2022-12-25T01:53:12.241Z,101477.06
2022-12-25T01:55:42.362Z,101480.56
2022-12-25T01:58:12.040Z,101483.80
2022-12-25T02:00:41.440Z,101495.66
2022-12-25T02:03:11.715Z,101487.52
2022-12-25T02:05:41.511Z,101496.72
2022-12-25T02:08:12.792Z,101488.50
2022-12-25T02:10:43.903Z,101485.13
2022-12-25T02:13:15.515Z,101491.13
2022-12-25T02:16:16.771Z,101492.80
2022-12-25T02:18:52.084Z,101490.94
2022-12-25T02:21:50.214Z,101487.00
2022-12-25T02:24:31.433Z,101489.73
2022-12-25T02:27:34.519Z,101480.69
2022-12-25T02:30:08.937Z,101473.92
2022-12-25T02:32:59.341Z,101476.97
2022-12-25T02:35:32.725Z,101473.34
2022-12-25T02:38:11.950Z,101474.03
2022-12-25T02:40:46.364Z,101468.03
2022-12-25T02:43:45.479Z,101460.91
2022-12-25T02:46:35.267Z,101457.28
2022-12-25T02:49:25.694Z,101451.19
2022-12-25T02:52:22.008Z,101445.12
2022-12-25T02:55:14.296Z,101441.65
2022-12-25T02:58:04.923Z,101428.62
2022-12-25T03:00:53.956Z,101409.05
2022-12-25T03:03:42.463Z,101396.09
2022-12-25T03:06:30.509Z,101401.34
2022-12-25T03:09:02.356Z,101401.74
2022-12-25T03:11:32.432Z,101399.51
2022-12-25T03:14:24.405Z,101392.51
2022-12-25T03:16:56.431Z,101398.40
2022-12-25T03:19:51.994Z,101402.85
2022-12-25T03:22:42.293Z,101401.23
2022-12-25T03:25:29.311Z,101396.98
2022-12-25T03:27:59.283Z,101393.52
2022-12-25T03:30:49.663Z,101390.34
2022-12-25T03:33:44.667Z,101390.14
2022-12-25T03:36:06.490Z,101386.11
2022-12-25T03:38:52.710Z,101385.84
2022-12-25T03:42:00.101Z,101385.44
2022-12-25T03:44:53.198Z,101382.92
2022-12-25T03:47:37.072Z,101382.45
2022-12-25T03:51:00.403Z,101381.70
2022-12-25T03:53:53.868Z,101377.77
2022-12-25T03:56:41.559Z,101384.07
2022-12-25T03:59:28.833Z,101381.61
2022-12-25T04:02:16.841Z,101379.98
2022-12-25T04:05:04.364Z,101369.34
2022-12-25T04:07:51.610Z,101377.00
2022-12-25T04:10:38.735Z,101383.07
2022-12-25T04:13:25.781Z,101393.95
2022-12-25T04:16:14.016Z,101390.08
2022-12-25T04:19:01.193Z,101388.97
2022-12-25T04:21:48.395Z,101392.29
2022-12-25T04:24:35.910Z,101402.78
2022-12-25T04:27:23.442Z,101392.94
2022-12-25T04:30:10.761Z,101395.50
2022-12-25T04:32:58.307Z,101399.85
2022-12-25T04:35:45.429Z,101391.31
2022-12-25T04:38:15.061Z,101390.84
2022-12-25T04:40:44.515Z,101383.80
2022-12-25T04:43:13.754Z,101384.39
2022-12-25T04:45:42.947Z,101380.06
2022-12-25T04:48:12.210Z,101371.58
2022-12-25T04:50:41.407Z,101372.30
2022-12-25T04:53:11.187Z,101376.72
2022-12-25T04:55:40.441Z,101377.23
2022-12-25T04:58:10.072Z,101376.62
2022-12-25T05:00:39.375Z,101375.02
2022-12-25T05:03:08.754Z,101367.00
2022-12-25T05:05:40.792Z,101371.68
2022-12-25T05:08:10.293Z,101363.95
2022-12-25T05:10:41.692Z,101365.23
2022-12-25T05:13:10.913Z,101365.69
2022-12-25T05:15:44.218Z,101360.08
2022-12-25T05:18:13.731Z,101365.04
2022-12-25T05:20:42.963Z,101355.30
2022-12-25T05:23:12.996Z,101346.36
2022-12-25T05:25:42.203Z,101337.56
2022-12-25T05:28:11.749Z,101342.75
2022-12-25T05:30:41.410Z,101343.50
2022-12-25T05:33:10.654Z,101326.77
2022-12-25T05:35:40.472Z,101333.22
2022-12-25T05:38:10.015Z,101338.51
2022-12-25T05:40:41.131Z,101338.66
2022-12-25T05:43:10.385Z,101348.97
2022-12-25T05:45:40.087Z,101342.77
2022-12-25T05:48:10.898Z,101340.28
2022-12-25T05:50:40.296Z,101339.97
2022-12-25T05:53:10.981Z,101328.36
2022-12-25T05:55:43.530Z,101333.15
2022-12-25T05:58:12.420Z,101323.60
2022-12-25T06:00:42.307Z,101311.30
2022-12-25T06:03:12.108Z,101311.89
2022-12-25T06:05:41.658Z,101313.31
2022-12-25T06:08:11.124Z,101314.98
2022-12-25T06:10:40.771Z,101307.53
2022-12-25T06:13:10.235Z,101307.99
2022-12-25T06:15:43.222Z,101299.69
2022-12-25T06:18:12.424Z,101292.45
2022-12-25T06:20:42.273Z,101290.39
2022-12-25T06:23:11.539Z,101284.43
2022-12-25T06:25:41.958Z,101282.73
2022-12-25T06:28:11.165Z,101283.39
2022-12-25T06:30:40.397Z,101275.57
2022-12-25T06:33:09.648Z,101268.68
2022-12-25T06:35:40.984Z,101263.26
2022-12-25T06:38:10.225Z,101275.14
2022-12-25T06:40:39.638Z,101282.69
2022-12-25T06:43:09.094Z,101266.08
2022-12-25T06:45:38.435Z,101268.68
2022-12-25T06:48:08.286Z,101258.97
2022-12-25T06:50:37.782Z,101244.17
2022-12-25T06:53:07.514Z,101233.27
2022-12-25T06:55:36.892Z,101236.72
2022-12-25T06:58:06.308Z,101248.46
2022-12-25T07:00:35.704Z,101246.58
2022-12-25T07:03:05.854Z,101233.16
2022-12-25T07:05:35.260Z,101236.86
2022-12-25T07:08:04.747Z,101236.51
2022-12-25T07:10:34.127Z,101250.56
2022-12-25T07:13:03.776Z,101268.27
2022-12-25T07:15:32.974Z,101265.01
2022-12-25T07:18:02.194Z,101261.56
2022-12-25T07:20:31.578Z,101269.23
2022-12-25T07:23:00.797Z,101276.36
2022-12-25T07:25:36.833Z,101268.52
2022-12-25T07:28:01.410Z,101262.00
2022-12-25T07:30:30.629Z,101269.69
2022-12-25T07:33:00.438Z,101277.92
2022-12-25T07:35:29.921Z,101274.72
2022-12-25T07:37:59.741Z,101271.41
2022-12-25T07:40:28.948Z,101261.59
2022-12-25T07:42:58.548Z,101256.55
2022-12-25T07:45:27.763Z,101256.03
2022-12-25T07:48:02.721Z,101266.32
2022-12-25T07:50:28.392Z,101272.84
2022-12-25T07:52:58.241Z,101290.48
2022-12-25T07:55:27.446Z,101298.36
2022-12-25T07:57:56.767Z,101300.41
2022-12-25T08:00:27.739Z,101307.55
2022-12-25T08:02:57.574Z,101313.91
2022-12-25T08:05:27.276Z,101308.02
2022-12-25T08:07:58.239Z,101305.89
2022-12-25T08:10:27.696Z,101316.75
2022-12-25T08:12:57.693Z,101321.75
2022-12-25T08:15:26.903Z,101319.16
2022-12-25T08:17:56.591Z,101315.89
2022-12-25T08:20:25.826Z,101316.28
2022-12-25T08:22:55.467Z,101309.97
2022-12-25T08:25:24.664Z,101303.40
2022-12-25T08:27:55.173Z,101311.27
2022-12-25T08:30:24.353Z,101314.29
2022-12-25T08:32:53.645Z,101313.33
2022-12-25T08:35:23.090Z,101308.87
2022-12-25T08:37:52.663Z,101308.44
2022-12-25T08:40:22.390Z,101304.19
2022-12-25T08:42:52.183Z,101309.50
2022-12-25T08:45:22.025Z,101316.53
2022-12-25T08:47:56.227Z,101316.70
2022-12-25T08:50:26.119Z,101314.37
2022-12-25T08:52:55.943Z,101308.30
2022-12-25T08:55:25.789Z,101306.66
2022-12-25T08:57:55.363Z,101296.04
2022-12-25T09:00:24.923Z,101300.77
2022-12-25T09:02:54.919Z,101299.98
2022-12-25T09:05:24.399Z,101305.80
2022-12-25T09:07:54.218Z,101308.55
2022-12-25T09:10:23.979Z,101314.53
2022-12-25T09:12:53.275Z,101309.39
2022-12-25T09:15:22.596Z,101312.23
2022-12-25T09:17:51.973Z,101311.38
2022-12-25T09:20:21.654Z,101310.75
2022-12-25T09:22:50.879Z,101311.71
2022-12-25T09:25:20.310Z,101321.64
2022-12-25T09:27:49.885Z,101340.24
2022-12-25T09:30:19.182Z,101318.35
2022-12-25T09:32:48.659Z,101314.41
2022-12-25T09:35:20.687Z,101314.98
2022-12-25T09:37:50.237Z,101300.54
2022-12-25T09:40:21.509Z,101306.36
2022-12-25T09:42:52.921Z,101295.86
2022-12-25T09:45:27.983Z,101272.23
2022-12-25T09:47:58.525Z,101277.58
2022-12-25T09:50:36.786Z,101278.55
2022-12-25T09:53:20.479Z,101283.52
2022-12-25T09:56:15.378Z,101277.80
2022-12-25T09:58:45.284Z,101261.47
2022-12-25T10:01:17.830Z,101246.75
2022-12-25T10:04:06.812Z,101249.38
2022-12-25T10:06:55.914Z,101253.70
2022-12-25T10:09:37.341Z,101252.39
2022-12-25T10:12:40.054Z,101251.19
2022-12-25T10:15:24.552Z,101240.41
2022-12-25T10:18:16.788Z,101252.09
2022-12-25T10:20:49.382Z,101259.71
2022-12-25T10:23:22.576Z,101256.12
2022-12-25T10:25:51.596Z,101254.25
2022-12-25T10:28:29.659Z,101250.03
2022-12-25T10:31:02.033Z,101253.75
2022-12-25T10:33:31.771Z,101254.70
2022-12-25T10:36:01.685Z,101254.36
2022-12-25T10:38:31.271Z,101256.59
2022-12-25T10:41:21.797Z,101252.30
2022-12-25T10:43:53.717Z,101242.65
2022-12-25T10:46:25.674Z,101240.59
2022-12-25T10:48:59.716Z,101230.09
2022-12-25T10:51:34.788Z,101233.70
2022-12-25T10:54:25.229Z,101219.84
2022-12-25T10:56:57.526Z,101207.45
2022-12-25T10:59:32.882Z,101196.84
2022-12-25T11:02:32.974Z,101194.11
2022-12-25T11:05:11.347Z,101195.18
2022-12-25T11:07:52.982Z,101178.36
2022-12-25T11:10:33.605Z,101170.53
2022-12-25T11:13:04.240Z,101167.41
2022-12-25T11:15:36.712Z,101163.02
2022-12-25T11:18:21.123Z,101157.08
2022-12-25T11:20:56.095Z,101156.47
2022-12-25T11:23:27.101Z,101156.97
2022-12-25T11:26:08.035Z,101153.03
2022-12-25T11:28:38.999Z,101153.89
2022-12-25T11:31:16.629Z,101158.39
2022-12-25T11:33:57.409Z,101148.34
2022-12-25T11:36:50.140Z,101154.45
2022-12-25T11:39:33.697Z,101153.05
2022-12-25T11:42:26.532Z,101147.15
2022-12-25T11:45:15.621Z,101152.86
2022-12-25T11:47:56.905Z,101154.58
2022-12-25T11:50:41.495Z,101149.91
2022-12-25T11:53:39.658Z,101146.81
2022-12-25T11:56:14.812Z,101145.74
2022-12-25T11:58:46.326Z,101137.86
2022-12-25T12:01:36.680Z,101131.91
2022-12-25T12:04:08.249Z,101122.34
2022-12-25T12:06:52.450Z,101112.80
2022-12-25T12:09:39.963Z,101110.52
2022-12-25T12:12:12.518Z,101105.77
2022-12-25T12:15:00.933Z,101106.98
2022-12-25T12:17:30.088Z,101104.23
2022-12-25T12:19:59.805Z,101104.75
2022-12-25T12:22:29.665Z,101100.93
2022-12-25T12:25:01.469Z,101102.40
2022-12-25T12:27:38.298Z,101102.88
2022-12-25T12:30:10.421Z,101093.45
2022-12-25T12:32:42.487Z,101095.73
2022-12-25T12:35:23.805Z,101099.66
2022-12-25T12:37:56.152Z,101093.68
2022-12-25T12:40:31.664Z,101090.47
2022-12-25T12:43:01.835Z,101088.23
2022-12-25T12:45:37.243Z,101086.69
2022-12-25T12:48:17.608Z,101074.75
2022-12-25T12:50:48.255Z,101080.23
2022-12-25T12:53:23.930Z,101077.95
2022-12-25T12:55:53.795Z,101075.21
2022-12-25T12:58:34.857Z,101068.88
2022-12-25T13:01:19.355Z,101070.77
2022-12-25T13:04:00.799Z,101067.80
2022-12-25T13:06:47.379Z,101061.80
2022-12-25T13:09:45.097Z,101049.17
2022-12-25T13:12:15.318Z,101058.37
2022-12-25T13:14:48.484Z,101049.75
2022-12-25T13:17:20.881Z,101043.42
2022-12-25T13:19:53.307Z,101042.38
2022-12-25T13:22:28.846Z,101037.62
2022-12-25T13:25:00.587Z,101024.71
2022-12-25T13:27:32.709Z,101025.44
2022-12-25T13:30:05.091Z,101025.17
2022-12-25T13:32:35.128Z,101029.73
2022-12-25T13:35:04.478Z,101032.45
2022-12-25T13:37:34.200Z,101025.27
2022-12-25T13:40:06.329Z,101020.63
2022-12-25T13:42:37.660Z,101011.89
2022-12-25T13:45:10.086Z,101004.25
2022-12-25T13:47:43.065Z,100994.94
2022-12-25T13:50:30.482Z,100996.37
2022-12-25T13:53:14.251Z,101001.97
2022-12-25T13:55:45.316Z,101002.59
2022-12-25T13:58:17.967Z,101002.58
2022-12-25T14:00:47.403Z,101007.14
2022-12-25T14:03:25.967Z,101009.88
2022-12-25T14:06:00.655Z,101010.12
2022-12-25T14:08:34.439Z,101010.81
2022-12-25T14:11:05.726Z,101020.97
2022-12-25T14:13:38.314Z,101029.35
2022-12-25T14:16:07.006Z,101027.69
2022-12-25T14:18:36.371Z,101035.30
2022-12-25T14:21:17.676Z,101041.79
2022-12-25T14:23:48.932Z,101045.47
2022-12-25T14:26:27.290Z,101047.05
2022-12-25T14:29:12.632Z,101042.26
2022-12-25T14:31:40.712Z,101031.28
2022-12-25T14:34:21.920Z,101028.66
2022-12-25T14:36:52.783Z,101018.95
2022-12-25T14:39:36.614Z,101017.30
2022-12-25T14:42:15.283Z,101012.63
2022-12-25T14:44:44.665Z,101012.28
2022-12-25T14:47:18.767Z,101006.32
2022-12-25T14:49:48.874Z,101009.38
2022-12-25T14:52:24.158Z,101021.82
2022-12-25T14:54:59.012Z,101026.58
2022-12-25T14:57:31.049Z,101015.38
2022-12-25T15:00:03.425Z,101019.05
2022-12-25T15:02:36.084Z,101021.55
2022-12-25T15:05:06.497Z,101020.13
2022-12-25T15:07:35.815Z,101018.93
2022-12-25T15:10:57.681Z,101014.75
2022-12-25T15:12:39.095Z,101013.09
2022-12-25T15:15:09.289Z,101010.47
2022-12-25T15:17:38.831Z,100997.06
2022-12-25T15:20:10.903Z,100990.85
2022-12-25T15:23:02.796Z,100988.61
2022-12-25T15:25:15.087Z,100980.23
2022-12-25T15:27:43.817Z,100976.05
2022-12-25T15:30:14.171Z,100963.73
2022-12-25T15:32:43.507Z,100957.30
2022-12-25T15:35:23.466Z,100964.82
2022-12-25T15:37:52.671Z,100964.09
2022-12-25T15:40:22.127Z,100958.72
2022-12-25T15:42:51.418Z,100960.03
2022-12-25T15:45:26.666Z,100960.30
2022-12-25T15:47:56.058Z,100963.86
2022-12-25T15:50:25.343Z,100965.55
2022-12-25T15:52:54.740Z,100964.73
2022-12-25T15:55:24.579Z,100972.34
2022-12-25T15:57:54.606Z,100972.81
2022-12-25T16:00:25.854Z,100980.34
2022-12-25T16:02:55.563Z,100991.43
2022-12-25T16:05:25.116Z,100987.95
2022-12-25T16:07:54.835Z,100991.55
2022-12-25T16:10:24.034Z,100990.00
2022-12-25T16:12:53.512Z,100979.84
2022-12-25T16:15:22.708Z,100971.00
2022-12-25T16:17:51.953Z,100970.42
2022-12-25T16:20:21.152Z,100961.58
2022-12-25T16:22:50.609Z,100955.02
2022-12-25T16:25:20.685Z,100950.95
2022-12-25T16:27:49.938Z,100941.63
2022-12-25T16:30:19.965Z,100932.66
2022-12-25T16:32:50.884Z,100936.10
2022-12-25T16:35:20.456Z,100937.64
2022-12-25T16:37:49.654Z,100949.73
2022-12-25T16:40:19.101Z,100965.59
2022-12-25T16:42:48.598Z,100969.41
2022-12-25T16:45:18.328Z,100966.05
2022-12-25T16:47:47.704Z,100964.39
2022-12-25T16:50:17.432Z,100968.45
2022-12-25T16:52:46.643Z,100977.88
2022-12-25T16:55:16.138Z,100981.23
2022-12-25T16:57:47.012Z,100975.98
2022-12-25T17:00:17.273Z,100966.94
2022-12-25T17:02:46.665Z,100975.64
2022-12-25T17:05:16.240Z,100970.39
2022-12-25T17:07:45.668Z,100971.58
2022-12-25T17:10:15.541Z,100957.88
2022-12-25T17:12:45.811Z,100962.66
2022-12-25T17:15:15.334Z,100966.48
2022-12-25T17:17:44.534Z,100957.88
2022-12-25T17:20:14.214Z,100949.30
2022-12-25T17:22:43.553Z,100941.66
2022-12-25T17:25:13.209Z,100942.70
2022-12-25T17:27:42.624Z,100947.25
2022-12-25T17:30:12.456Z,100947.61
2022-12-25T17:32:41.663Z,100939.96
2022-12-25T17:35:11.451Z,100947.45
2022-12-25T17:37:40.987Z,100955.71
2022-12-25T17:40:11.070Z,100955.13
2022-12-25T17:42:40.591Z,100963.70
2022-12-25T17:45:10.631Z,100979.96
2022-12-25T17:47:39.855Z,100976.14
2022-12-25T17:50:09.784Z,100977.88
2022-12-25T17:52:38.989Z,100967.26
2022-12-25T17:55:09.178Z,100958.64
2022-12-25T17:57:41.098Z,100956.63
2022-12-25T18:00:10.345Z,100957.95
2022-12-25T18:02:40.092Z,100952.70
2022-12-25T18:05:10.567Z,100939.34
2022-12-25T18:07:39.765Z,100950.30
2022-12-25T18:10:09.741Z,100950.42
2022-12-25T18:12:39.001Z,100958.87
2022-12-25T18:15:09.309Z,100952.70
2022-12-25T18:17:39.376Z,100954.83
2022-12-25T18:20:09.612Z,100961.66
2022-12-25T18:22:39.116Z,100974.82
2022-12-25T18:25:09.064Z,100975.75
2022-12-25T18:27:38.594Z,100970.39
2022-12-25T18:30:09.121Z,100961.08
2022-12-25T18:32:38.522Z,100957.64
2022-12-25T18:35:08.948Z,100965.63
2022-12-25T18:37:40.276Z,100968.38
2022-12-25T18:40:10.384Z,100977.22
2022-12-25T18:42:39.730Z,100974.36
2022-12-25T18:45:11.324Z,100962.55
2022-12-25T18:47:40.643Z,100962.43
2022-12-25T18:50:10.714Z,100962.05
2022-12-25T18:52:49.020Z,100963.24
2022-12-25T18:55:13.272Z,100973.28
2022-12-25T18:57:42.599Z,100969.23
2022-12-25T19:00:12.511Z,100973.52
2022-12-25T19:02:42.223Z,100970.30
2022-12-25T19:05:11.953Z,100971.50
2022-12-25T19:07:41.183Z,100973.16
2022-12-25T19:10:11.781Z,100964.33
2022-12-25T19:12:41.006Z,100959.07
2022-12-25T19:15:11.920Z,100956.33
2022-12-25T19:17:41.157Z,100953.23
2022-12-25T19:20:11.236Z,100952.27
2022-12-25T19:22:40.475Z,100954.08
2022-12-25T19:25:10.393Z,100953.82
2022-12-25T19:27:39.613Z,100956.21
2022-12-25T19:30:11.078Z,100961.11
2022-12-25T19:32:40.296Z,100975.56
2022-12-25T19:35:10.265Z,100984.98
2022-12-25T19:37:39.667Z,100984.75
2022-12-25T19:40:09.923Z,100976.37
2022-12-25T19:42:39.249Z,100987.02
2022-12-25T19:45:09.658Z,100984.13
2022-12-25T19:47:38.946Z,100983.09
2022-12-25T19:50:09.240Z,100974.59
2022-12-25T19:52:38.468Z,100979.84
2022-12-25T19:55:08.306Z,100970.19
2022-12-25T19:57:37.535Z,100972.70
2022-12-25T20:00:08.448Z,100978.91
2022-12-25T20:02:38.797Z,100995.60
2022-12-25T20:05:09.947Z,100981.66
2022-12-25T20:07:39.446Z,100992.52
2022-12-25T20:10:09.941Z,100991.31
2022-12-25T20:12:39.178Z,100991.93
2022-12-25T20:15:09.359Z,100991.66
2022-12-25T20:17:38.868Z,100991.08
2022-12-25T20:20:09.345Z,100987.49
2022-12-25T20:22:39.858Z,100986.91
2022-12-25T20:25:11.167Z,100986.45
2022-12-25T20:27:40.546Z,100983.32
2022-12-25T20:30:10.400Z,100975.91
2022-12-25T20:32:42.547Z,100990.47
2022-12-25T20:35:17.305Z,100993.94
2022-12-25T20:37:46.721Z,100990.59
2022-12-25T20:40:16.181Z,100991.78
2022-12-25T20:42:45.463Z,100989.53
2022-12-25T20:45:14.822Z,100992.28
2022-12-25T20:47:44.042Z,101001.35
2022-12-25T20:50:13.547Z,101007.34
2022-12-25T20:52:42.768Z,101005.88
2022-12-25T20:55:14.158Z,101003.25
2022-12-25T20:57:44.091Z,101000.28
2022-12-25T21:00:14.248Z,100996.22
2022-12-25T21:02:44.403Z,101010.16
2022-12-25T21:05:13.945Z,101008.50
2022-12-25T21:07:43.319Z,101008.61
2022-12-25T21:10:13.156Z,101026.64
2022-12-25T21:12:43.110Z,101022.09
2022-12-25T21:15:15.835Z,101009.20
2022-12-25T21:17:44.512Z,101015.88
2022-12-25T21:20:13.902Z,101018.27
2022-12-25T21:22:43.124Z,101030.47
2022-12-25T21:25:12.329Z,101037.97
2022-12-25T21:27:41.703Z,101048.62
2022-12-25T21:30:14.082Z,101052.06
2022-12-25T21:33:00.162Z,101056.62
2022-12-25T21:35:29.392Z,101062.22
2022-12-25T21:37:58.602Z,101061.26
2022-12-25T21:40:28.233Z,101068.20
2022-12-25T21:42:57.634Z,101069.36
2022-12-25T21:45:27.058Z,101064.95
2022-12-25T21:48:01.606Z,101061.02
2022-12-25T21:50:45.462Z,101055.66
2022-12-25T21:53:18.201Z,101050.63
2022-12-25T21:56:02.552Z,101052.91
2022-12-25T21:58:32.091Z,101051.59
2022-12-25T22:01:05.171Z,101050.39
2022-12-25T22:03:34.731Z,101035.45
2022-12-25T22:06:22.055Z,101031.05
2022-12-25T22:08:51.648Z,101028.66
2022-12-25T22:11:39.196Z,101023.29
2022-12-25T22:14:52.615Z,101018.73
2022-12-25T22:17:22.135Z,101017.42
2022-12-25T22:19:51.743Z,101024.44
2022-12-25T22:22:25.779Z,101029.91
2022-12-25T22:24:57.546Z,101026.55
2022-12-25T22:27:28.993Z,101026.20
2022-12-25T22:29:59.040Z,101030.25
2022-12-25T22:32:28.828Z,101024.95
2022-12-25T22:34:58.543Z,101028.76
2022-12-25T22:37:29.348Z,101036.75
2022-12-25T22:40:00.926Z,101039.96
2022-12-25T22:42:30.218Z,101040.70
2022-12-25T22:44:59.456Z,101039.66
2022-12-25T22:47:29.096Z,101029.39
2022-12-25T22:49:58.465Z,101047.88
2022-12-25T22:52:27.671Z,101042.98
2022-12-25T22:54:56.897Z,101046.81
2022-12-25T22:57:26.791Z,101056.63
2022-12-25T22:59:56.181Z,101059.47
2022-12-25T23:02:26.297Z,101060.56
2022-12-25T23:04:55.930Z,101055.20
2022-12-25T23:07:25.628Z,101057.58
2022-12-25T23:09:54.865Z,101043.03
2022-12-25T23:12:41.983Z,101048.17
2022-12-25T23:15:11.504Z,101051.38
2022-12-25T23:17:58.623Z,101036.37
2022-12-25T23:20:45.681Z,101036.02
2022-12-25T23:23:34.784Z,101037.10
2022-12-25T23:26:08.341Z,101038.53
2022-12-25T23:28:57.839Z,101042.02
2022-12-25T23:31:36.527Z,101045.48
2022-12-25T23:34:07.796Z,101041.31
2022-12-25T23:36:37.371Z,101050.63
2022-12-25T23:39:10.132Z,101054.57
2022-12-25T23:41:38.087Z,101059.59
2022-12-25T23:44:07.992Z,101061.03
2022-12-25T23:46:37.616Z,101063.30
2022-12-25T23:49:07.331Z,101069.64
2022-12-25T23:51:39.489Z,101075.47
2022-12-25T23:54:08.879Z,101077.98
2022-12-25T23:56:38.708Z,101072.73
2022-12-25T23:59:08.819Z,101081.84
